Time;durP1;ratioP1;P1;durP2;ratioP2;P2;SDS_P1;SDS_P2;PMS_P1;PMS_P2;Temp;Humidity;BMP_temperature;BMP_pressure;BME280_temperature;BME280_humidity;BME280_pressure;Samples;Min_cycle;Max_cycle;Signal;HPM_P1;HPM_P2
2023/11/22 00:00:51;;;;;;;14.25;5.93;;;;;;;5.02;100.00;93148.53;2104515;28;20024;-77
2023/11/22 00:01:53;;;;;;;9.48;6.00;;;;;;;4.99;100.00;93154.59;2107828;28;20077;-78
2023/11/22 00:02:54;;;;;;;10.18;5.32;;;;;;;5.01;100.00;93155.00;2104331;28;20432;-79
2023/11/22 00:03:55;;;;;;;8.15;5.72;;;;;;;5.00;100.00;93153.47;2117639;27;20047;-79
2023/11/22 00:04:56;;;;;;;14.10;6.07;;;;;;;5.00;100.00;93152.69;2093107;28;20025;-79
2023/11/22 00:05:57;;;;;;;10.30;5.22;;;;;;;4.97;100.00;93156.13;2081769;28;20052;-78
2023/11/22 00:06:58;;;;;;;15.15;5.88;;;;;;;5.00;100.00;93147.41;2085106;28;20078;-80
2023/11/22 00:07:59;;;;;;;11.68;5.70;;;;;;;4.92;100.00;93149.31;2104216;28;20451;-77
2023/11/22 00:09:00;;;;;;;9.10;5.78;;;;;;;5.03;100.00;93154.59;2055848;28;21232;-79
2023/11/22 00:10:04;;;;;;;13.27;5.45;;;;;;;4.99;100.00;93161.78;2003250;28;20058;-78
2023/11/22 00:11:05;;;;;;;13.80;5.43;;;;;;;4.95;100.00;93161.78;2007554;28;20509;-79
2023/11/22 00:12:06;;;;;;;12.20;5.07;;;;;;;5.03;100.00;93159.91;2019897;28;20365;-79
2023/11/22 00:13:07;;;;;;;7.82;5.40;;;;;;;4.89;100.00;93158.00;2013470;28;20041;-78
2023/11/22 00:14:08;;;;;;;9.98;5.43;;;;;;;4.96;100.00;93160.66;2024306;28;20124;-81
2023/11/22 00:15:11;;;;;;;9.52;4.95;;;;;;;5.11;100.00;93156.13;2038006;28;20099;-78
2023/11/22 00:16:12;;;;;;;13.10;5.43;;;;;;;5.02;100.00;93161.78;2047018;28;20038;-78
2023/11/22 00:17:13;;;;;;;11.23;4.95;;;;;;;4.99;100.00;93151.19;2075755;27;20494;-79
2023/11/22 00:18:14;;;;;;;8.82;4.80;;;;;;;5.07;100.00;93150.06;2081752;27;20471;-79
2023/11/22 00:19:17;;;;;;;8.88;4.93;;;;;;;5.07;100.00;93154.59;2094507;27;20068;-78
2023/11/22 00:20:18;;;;;;;11.35;5.15;;;;;;;5.12;100.00;93157.63;2086269;28;20492;-79
2023/11/22 00:21:19;;;;;;;9.32;4.93;;;;;;;5.12;100.00;93152.31;2077820;28;20033;-78
2023/11/22 00:22:23;;;;;;;10.90;4.90;;;;;;;5.12;100.00;93149.66;2091956;28;20028;-80
2023/11/22 00:23:28;;;;;;;10.35;4.65;;;;;;;5.13;100.00;93159.13;2091549;28;20033;-79
2023/11/22 00:24:30;;;;;;;5.78;4.28;;;;;;;5.00;100.00;93156.13;2100049;28;20031;-78
2023/11/22 00:25:30;;;;;;;8.80;4.47;;;;;;;5.05;100.00;93155.75;2100203;28;20027;-78
2023/11/22 00:26:32;;;;;;;8.93;4.63;;;;;;;5.10;100.00;93167.84;2122722;27;20452;-81
2023/11/22 00:27:33;;;;;;;9.52;4.50;;;;;;;5.04;100.00;93162.16;2123355;27;20090;-79
2023/11/22 00:28:34;;;;;;;6.43;4.22;;;;;;;5.10;100.00;93161.81;2112035;28;20016;-79
2023/11/22 00:29:35;;;;;;;5.85;4.13;;;;;;;5.05;100.00;93162.94;2106001;28;20020;-79
2023/11/22 00:30:36;;;;;;;9.15;4.50;;;;;;;5.03;100.00;93160.66;2105713;28;20488;-79
2023/11/22 00:31:37;;;;;;;7.65;3.92;;;;;;;5.05;100.00;93160.28;2109623;28;20107;-80
2023/11/22 00:32:40;;;;;;;5.95;3.80;;;;;;;5.07;100.00;93165.19;2121307;27;20030;-78
2023/11/22 00:33:41;;;;;;;7.80;4.40;;;;;;;4.90;100.00;93159.50;2121274;27;20019;-76
2023/11/22 00:34:42;;;;;;;10.80;4.32;;;;;;;4.91;100.00;93168.22;2109825;28;20027;-78
2023/11/22 00:35:43;;;;;;;9.95;4.13;;;;;;;5.07;100.00;93170.50;2112091;28;20043;-76
2023/11/22 00:36:44;;;;;;;7.38;3.75;;;;;;;5.00;100.00;93166.72;2111847;28;20036;-78
2023/11/22 00:37:46;;;;;;;7.10;4.28;;;;;;;4.99;100.00;93169.72;2112257;28;20023;-80
2023/11/22 00:38:47;;;;;;;6.85;4.85;;;;;;;5.01;100.00;93170.88;2105163;28;20098;-79
2023/11/22 00:39:48;;;;;;;9.95;4.90;;;;;;;4.98;100.00;93158.38;2105704;28;20444;-79
2023/11/22 00:40:50;;;;;;;6.63;4.38;;;;;;;5.12;100.00;93162.91;2103754;28;20040;-81
2023/11/22 00:41:50;;;;;;;7.80;4.75;;;;;;;5.07;100.00;93159.91;2112437;28;20080;-77
2023/11/22 00:42:52;;;;;;;8.93;4.60;;;;;;;4.98;100.00;93160.28;2113610;28;20016;-78
2023/11/22 00:43:53;;;;;;;13.98;5.18;;;;;;;5.04;100.00;93156.84;2104923;28;20536;-77
2023/11/22 00:44:55;;;;;;;10.77;4.75;;;;;;;4.94;100.00;93162.91;2099747;28;20151;-76
2023/11/22 00:45:57;;;;;;;7.60;4.70;;;;;;;5.04;100.00;93161.41;2119298;27;20052;-77
2023/11/22 00:46:58;;;;;;;7.80;4.72;;;;;;;4.95;100.00;93163.69;2109318;28;20107;-79
2023/11/22 00:47:59;;;;;;;5.13;3.78;;;;;;;4.88;100.00;93171.63;2111985;28;20040;-77
2023/11/22 00:48:59;;;;;;;7.85;4.40;;;;;;;4.92;100.00;93165.19;2121557;27;20045;-78
2023/11/22 00:50:01;;;;;;;8.68;4.78;;;;;;;5.06;100.00;93169.75;2112801;28;20027;-77
2023/11/22 00:51:08;;;;;;;7.85;4.50;;;;;;;4.98;100.00;93168.22;2097271;28;20051;-78
2023/11/22 00:52:09;;;;;;;8.05;4.97;;;;;;;4.86;100.00;93173.88;2105986;27;20712;-78
2023/11/22 00:53:12;;;;;;;5.38;4.47;;;;;;;4.85;100.00;93172.38;2113964;28;20546;-77
2023/11/22 00:54:13;;;;;;;10.32;4.35;;;;;;;4.89;100.00;93173.91;2114354;27;20464;-78
2023/11/22 00:55:14;;;;;;;7.88;4.10;;;;;;;4.87;100.00;93164.81;2103647;28;20076;-79
2023/11/22 00:56:15;;;;;;;6.32;4.05;;;;;;;4.89;100.00;93168.59;2095312;28;20481;-79
2023/11/22 00:57:16;;;;;;;6.97;4.45;;;;;;;4.84;100.00;93154.97;2104138;28;20028;-76
2023/11/22 00:58:17;;;;;;;7.85;4.13;;;;;;;4.91;100.00;93174.25;2110157;28;20024;-79
2023/11/22 00:59:19;;;;;;;5.55;4.05;;;;;;;4.84;100.00;93168.22;2109929;28;20032;-80
2023/11/22 01:00:20;;;;;;;6.03;3.97;;;;;;;4.79;100.00;93166.72;2111915;28;20470;-78
2023/11/22 01:01:21;;;;;;;6.88;4.18;;;;;;;4.78;100.00;93163.31;2103638;28;20093;-77
2023/11/22 01:02:22;;;;;;;9.32;4.05;;;;;;;4.85;100.00;93164.44;2103544;28;20016;-77
2023/11/22 01:03:23;;;;;;;6.85;4.10;;;;;;;4.91;100.00;93163.66;2122474;27;20490;-77
2023/11/22 01:04:24;;;;;;;8.80;4.10;;;;;;;4.93;100.00;93156.13;2119020;28;20027;-76
2023/11/22 01:05:25;;;;;;;8.32;4.72;;;;;;;5.01;100.00;93162.94;2117373;27;20015;-75
2023/11/22 01:06:26;;;;;;;8.90;4.07;;;;;;;4.97;100.00;93151.56;2121978;27;20022;-79
2023/11/22 01:07:27;;;;;;;5.97;3.80;;;;;;;4.84;100.00;93163.69;2113649;28;20030;-78
2023/11/22 01:08:28;;;;;;;8.35;3.85;;;;;;;4.85;100.00;93165.19;2105907;28;20020;-77
2023/11/22 01:09:31;;;;;;;7.38;4.30;;;;;;;4.91;100.00;93170.84;2114245;27;20110;-78
2023/11/22 01:10:32;;;;;;;6.35;3.88;;;;;;;4.96;100.00;93171.25;2113639;28;20421;-79
2023/11/22 01:11:36;;;;;;;6.20;3.67;;;;;;;5.00;100.00;93169.38;2103023;28;20083;-80
2023/11/22 01:12:37;;;;;;;6.53;3.47;;;;;;;4.83;100.00;93171.97;2103748;28;20030;-79
2023/11/22 01:13:40;;;;;;;5.60;3.58;;;;;;;4.80;100.00;93173.50;2105125;28;20036;-80
2023/11/22 01:14:41;;;;;;;7.07;3.63;;;;;;;4.89;100.00;93175.78;2101818;28;20502;-78
2023/11/22 01:15:44;;;;;;;7.80;3.83;;;;;;;4.92;100.00;93175.78;2111833;28;20023;-78
2023/11/22 01:16:45;;;;;;;6.55;3.70;;;;;;;4.90;100.00;93174.66;2120175;27;20434;-78
2023/11/22 01:17:46;;;;;;;4.38;2.97;;;;;;;4.87;100.00;93178.78;2111135;28;20019;-78
2023/11/22 01:18:47;;;;;;;5.65;3.60;;;;;;;4.94;100.00;93181.47;2109338;28;20110;-77
2023/11/22 01:19:48;;;;;;;7.22;3.83;;;;;;;4.95;100.00;93182.22;2121969;27;20030;-77
2023/11/22 01:20:49;;;;;;;6.60;3.58;;;;;;;4.86;100.00;93177.28;2109517;28;20491;-77
2023/11/22 01:21:52;;;;;;;8.50;3.53;;;;;;;5.01;100.00;93175.41;2109049;28;20024;-77
2023/11/22 01:22:53;;;;;;;7.25;4.18;;;;;;;4.98;100.00;93184.88;2111160;28;20027;-78
2023/11/22 01:23:54;;;;;;;7.95;4.00;;;;;;;5.04;100.00;93175.41;2111665;28;20105;-78
2023/11/22 01:24:55;;;;;;;5.57;3.20;;;;;;;5.09;100.00;93182.22;2111304;28;20534;-78
2023/11/22 01:25:56;;;;;;;5.38;3.63;;;;;;;5.08;100.00;93177.31;2113288;28;20019;-76
2023/11/22 01:26:57;;;;;;;5.95;3.53;;;;;;;5.06;100.00;93180.34;2119178;27;20023;-80
2023/11/22 01:27:58;;;;;;;5.32;3.42;;;;;;;5.04;100.00;93174.66;2122753;27;20015;-79
2023/11/22 01:29:00;;;;;;;6.10;3.63;;;;;;;5.13;100.00;93179.56;2105390;28;20053;-77
2023/11/22 01:30:03;;;;;;;6.32;3.30;;;;;;;5.16;100.00;93170.88;2091153;28;20025;-80
2023/11/22 01:31:04;;;;;;;6.50;3.63;;;;;;;5.15;100.00;93177.31;2105018;28;20016;-76
2023/11/22 01:32:05;;;;;;;6.68;4.05;;;;;;;5.00;100.00;93177.31;2106300;28;20070;-79
2023/11/22 01:33:06;;;;;;;5.43;3.70;;;;;;;5.06;100.00;93188.28;2107740;28;20023;-76
2023/11/22 01:34:07;;;;;;;6.97;3.55;;;;;;;5.16;100.00;93170.88;2121527;27;20046;-78
2023/11/22 01:35:09;;;;;;;5.28;3.85;;;;;;;5.12;100.00;93178.06;2117669;27;20102;-78
2023/11/22 01:36:10;;;;;;;5.35;3.30;;;;;;;5.09;100.00;93174.25;2114782;27;20487;-79
2023/11/22 01:37:12;;;;;;;6.40;3.70;;;;;;;5.13;100.00;93174.25;2103570;28;20265;-80
2023/11/22 01:38:13;;;;;;;5.03;3.55;;;;;;;5.13;100.00;93172.38;2111756;27;20028;-78
2023/11/22 01:39:13;;;;;;;5.10;3.60;;;;;;;5.01;100.00;93176.19;2119112;27;20520;-80
2023/11/22 01:40:14;;;;;;;7.07;3.92;;;;;;;5.08;100.00;93167.47;2112111;28;20074;-78
2023/11/22 01:41:15;;;;;;;8.00;4.18;;;;;;;4.98;100.00;93166.31;2100707;28;21025;-79
2023/11/22 01:42:16;;;;;;;6.88;4.00;;;;;;;4.98;100.00;93166.31;2093982;28;20024;-79
2023/11/22 01:43:18;;;;;;;8.10;4.40;;;;;;;5.02;100.00;93163.69;2112373;27;20065;-77
2023/11/22 01:44:20;;;;;;;6.32;4.47;;;;;;;5.07;100.00;93163.31;2113995;27;20515;-80
2023/11/22 01:45:21;;;;;;;5.40;3.90;;;;;;;5.03;100.00;93165.19;2109843;28;20028;-79
2023/11/22 01:46:25;;;;;;;6.50;4.15;;;;;;;5.17;100.00;93167.06;2111204;27;20507;-76
2023/11/22 01:47:27;;;;;;;5.95;3.92;;;;;;;4.97;100.00;93172.00;2114029;27;20472;-78
2023/11/22 01:48:28;;;;;;;5.40;3.72;;;;;;;4.97;100.00;93177.31;2104423;28;20428;-80
2023/11/22 01:49:29;;;;;;;8.25;4.47;;;;;;;5.03;100.00;93170.50;2110488;28;20441;-78
2023/11/22 01:50:30;;;;;;;5.45;3.92;;;;;;;5.07;100.00;93176.53;2121009;27;20425;-78
2023/11/22 01:51:31;;;;;;;8.10;4.13;;;;;;;5.19;100.00;93172.75;2119034;27;20023;-78
2023/11/22 01:52:32;;;;;;;4.72;3.88;;;;;;;5.13;100.00;93172.38;2117138;27;20375;-76
2023/11/22 01:53:34;;;;;;;6.28;3.95;;;;;;;5.21;100.00;93176.53;2121367;27;20098;-77
2023/11/22 01:54:35;;;;;;;7.47;4.97;;;;;;;5.22;100.00;93180.72;2123857;27;20148;-79
2023/11/22 01:55:36;;;;;;;6.70;4.10;;;;;;;5.26;100.00;93183.34;2115017;27;20118;-77
2023/11/22 01:56:38;;;;;;;8.65;4.40;;;;;;;5.10;100.00;93183.00;2112749;28;20019;-77
2023/11/22 01:57:39;;;;;;;6.90;3.80;;;;;;;5.09;100.00;93184.84;2103785;28;20024;-78
2023/11/22 01:58:40;;;;;;;6.22;3.67;;;;;;;5.05;100.00;93182.22;2103190;28;20422;-77
2023/11/22 01:59:43;;;;;;;7.07;4.60;;;;;;;4.98;100.00;93194.72;2121768;27;20031;-78
2023/11/22 02:00:50;;;;;;;5.50;3.80;;;;;;;5.09;100.00;93184.09;2121657;27;20057;-78
2023/11/22 02:01:50;;;;;;;7.30;3.88;;;;;;;4.94;100.00;93189.41;2115300;27;20023;-77
2023/11/22 02:02:53;;;;;;;8.88;4.10;;;;;;;4.97;100.00;93185.25;2109397;28;20020;-80
2023/11/22 02:03:55;;;;;;;8.45;3.88;;;;;;;5.04;100.00;93186.00;2113515;28;20024;-77
2023/11/22 02:04:56;;;;;;;8.02;4.50;;;;;;;5.00;100.00;93187.91;2111920;28;20456;-75
2023/11/22 02:05:57;;;;;;;6.95;4.13;;;;;;;5.05;100.00;93186.78;2100946;28;20029;-77
2023/11/22 02:06:58;;;;;;;7.45;4.10;;;;;;;4.93;100.00;93190.53;2102275;28;20027;-77
2023/11/22 02:07:59;;;;;;;7.43;4.35;;;;;;;5.06;100.00;93183.00;2105951;28;20020;-76
2023/11/22 02:09:01;;;;;;;5.40;4.63;;;;;;;5.12;100.00;93178.81;2109145;28;20562;-78
2023/11/22 02:10:02;;;;;;;6.18;4.38;;;;;;;5.11;100.00;93184.50;2121662;27;20497;-80
2023/11/22 02:11:03;;;;;;;7.53;4.03;;;;;;;5.04;100.00;93193.19;2123396;27;20049;-81
2023/11/22 02:12:05;;;;;;;10.63;4.18;;;;;;;5.05;100.00;93182.22;2109781;28;20031;-77
2023/11/22 02:13:07;;;;;;;5.50;3.92;;;;;;;5.14;100.00;93192.44;2109218;28;20121;-78
2023/11/22 02:14:09;;;;;;;7.65;4.43;;;;;;;5.08;100.00;93193.19;2105875;28;20024;-78
2023/11/22 02:15:10;;;;;;;7.53;4.35;;;;;;;5.17;100.00;93178.44;2108084;28;20023;-80
2023/11/22 02:16:11;;;;;;;6.00;3.88;;;;;;;5.15;100.00;93187.91;2108543;28;20024;-78
2023/11/22 02:17:12;;;;;;;5.65;3.78;;;;;;;5.18;100.00;93174.66;2108944;28;20074;-78
2023/11/22 02:18:13;;;;;;;5.85;4.35;;;;;;;5.13;100.00;93179.56;2111233;28;20030;-76
2023/11/22 02:19:16;;;;;;;8.18;4.10;;;;;;;5.19;100.00;93178.06;2107851;28;20048;-78
2023/11/22 02:20:17;;;;;;;8.32;3.90;;;;;;;5.17;100.00;93188.28;2103708;28;20024;-79
2023/11/22 02:21:18;;;;;;;6.22;4.03;;;;;;;5.22;100.00;93186.03;2113539;28;20015;-78
2023/11/22 02:22:19;;;;;;;4.95;4.00;;;;;;;5.17;100.00;93183.72;2121537;27;20479;-77
2023/11/22 02:23:20;;;;;;;4.00;3.30;;;;;;;5.26;100.00;93186.75;2120213;27;20058;-78
2023/11/22 02:24:21;;;;;;;8.07;4.47;;;;;;;5.19;100.00;93183.38;2108000;28;20040;-78
2023/11/22 02:25:22;;;;;;;5.18;3.75;;;;;;;5.16;100.00;93189.41;2104660;28;20016;-77
2023/11/22 02:26:25;;;;;;;4.60;4.07;;;;;;;5.24;100.00;93185.63;2100771;28;20016;-79
2023/11/22 02:27:26;;;;;;;4.90;4.18;;;;;;;5.16;100.00;93189.41;2102630;28;20589;-79
2023/11/22 02:28:27;;;;;;;5.50;4.28;;;;;;;5.17;100.00;93188.28;2100053;28;20451;-80
2023/11/22 02:29:29;;;;;;;6.25;3.65;;;;;;;5.17;100.00;93194.31;2101929;28;20557;-77
2023/11/22 02:30:30;;;;;;;5.53;4.10;;;;;;;5.22;100.00;93193.97;2096653;28;20025;-77
2023/11/22 02:31:30;;;;;;;7.15;3.58;;;;;;;5.33;100.00;93193.19;2080182;28;20052;-78
2023/11/22 02:32:33;;;;;;;5.07;3.95;;;;;;;5.29;100.00;93195.84;2092403;28;20027;-78
2023/11/22 02:33:35;;;;;;;6.78;4.18;;;;;;;5.21;100.00;93191.69;2097853;28;20016;-76
2023/11/22 02:34:56;;;;;;;5.72;3.58;;;;;;;5.17;100.00;93188.28;2098817;28;20104;-78
2023/11/22 02:35:57;;;;;;;5.70;3.90;;;;;;;5.13;100.00;93196.22;2103043;28;20050;-77
2023/11/22 02:36:59;;;;;;;4.95;3.60;;;;;;;5.18;100.00;93193.22;2099581;28;20019;-78
2023/11/22 02:38:00;;;;;;;7.97;3.72;;;;;;;5.18;100.00;93192.44;2096836;28;20408;-78
2023/11/22 02:39:01;;;;;;;5.25;3.60;;;;;;;5.18;100.00;93195.06;2103942;28;20028;-75
2023/11/22 02:40:06;;;;;;;5.35;4.03;;;;;;;5.09;100.00;93192.06;2108656;28;20035;-78
2023/11/22 02:41:06;;;;;;;6.03;3.63;;;;;;;5.08;100.00;93193.19;2110499;28;20026;-79
2023/11/22 02:42:08;;;;;;;4.28;3.55;;;;;;;5.05;100.00;93194.72;2109136;28;20457;-79
2023/11/22 02:43:11;;;;;;;3.97;3.38;;;;;;;5.10;100.00;93198.88;2109238;28;20027;-78
2023/11/22 02:44:17;;;;;;;4.55;3.42;;;;;;;5.20;100.00;93188.28;2112076;28;21113;-79
2023/11/22 02:45:19;;;;;;;4.80;3.22;;;;;;;5.11;100.00;93195.09;2101725;28;20053;-78
2023/11/22 02:46:20;;;;;;;6.22;3.95;;;;;;;5.10;100.00;93201.53;2096750;28;20031;-79
2023/11/22 02:47:21;;;;;;;4.85;3.95;;;;;;;5.21;100.00;93199.63;2095524;28;20056;-78
2023/11/22 02:48:23;;;;;;;5.43;3.58;;;;;;;5.09;100.00;93198.09;2095372;28;20028;-78
2023/11/22 02:49:23;;;;;;;5.78;3.60;;;;;;;5.22;100.00;93201.91;2087641;28;20033;-77
2023/11/22 02:50:25;;;;;;;6.07;3.42;;;;;;;5.02;100.00;93206.81;2088618;28;20074;-78
2023/11/22 02:51:26;;;;;;;7.63;3.33;;;;;;;5.12;100.00;93204.56;2100018;28;20529;-78
2023/11/22 02:52:27;;;;;;;5.78;3.83;;;;;;;5.14;100.00;93207.59;2101390;28;20033;-78
2023/11/22 02:53:29;;;;;;;6.30;3.65;;;;;;;5.12;100.00;93202.66;2095627;28;20040;-78
2023/11/22 02:54:30;;;;;;;5.30;3.50;;;;;;;5.15;100.00;93206.44;2088354;28;20045;-78
2023/11/22 02:55:31;;;;;;;5.35;3.72;;;;;;;5.12;100.00;93212.50;2097976;28;20357;-76
2023/11/22 02:56:32;;;;;;;7.22;3.63;;;;;;;5.28;100.00;93210.25;2101653;28;20027;-77
2023/11/22 02:57:33;;;;;;;5.90;2.97;;;;;;;5.39;100.00;93205.69;2101557;28;20396;-78
2023/11/22 02:58:34;;;;;;;6.35;3.17;;;;;;;5.57;100.00;93203.00;2088182;28;20021;-77
2023/11/22 02:59:35;;;;;;;4.28;2.83;;;;;;;5.41;100.00;93206.06;2092320;28;20016;-77
2023/11/22 03:00:37;;;;;;;3.05;2.70;;;;;;;5.33;100.00;93206.44;2090342;28;20017;-76
2023/11/22 03:01:42;;;;;;;2.83;2.58;;;;;;;5.25;100.00;93216.28;2094371;28;20508;-76
2023/11/22 03:02:43;;;;;;;2.40;2.20;;;;;;;5.27;100.00;93211.38;2104393;28;20016;-77
2023/11/22 03:03:44;;;;;;;2.85;2.55;;;;;;;5.18;100.00;93213.63;2104779;28;20020;-76
2023/11/22 03:04:45;;;;;;;4.55;2.50;;;;;;;5.20;100.00;93214.03;2101307;28;20094;-78
2023/11/22 03:05:46;;;;;;;5.50;2.88;;;;;;;5.22;100.00;93219.69;2102079;28;20021;-77
2023/11/22 03:06:48;;;;;;;4.25;2.60;;;;;;;5.11;100.00;93214.41;2099115;28;20027;-79
2023/11/22 03:07:50;;;;;;;5.20;3.00;;;;;;;4.97;100.00;93222.34;2106079;28;20020;-79
2023/11/22 03:08:52;;;;;;;3.45;2.88;;;;;;;5.02;100.00;93217.41;2110008;28;20020;-81
2023/11/22 03:09:53;;;;;;;4.18;2.42;;;;;;;5.31;100.00;93217.41;2111339;28;20383;-79
2023/11/22 03:11:17;;;;;;;4.07;2.63;;;;;;;5.33;100.00;93222.34;2113035;28;20482;-79
2023/11/22 03:12:19;;;;;;;4.03;2.53;;;;;;;5.30;100.00;93224.59;2102796;28;20008;-78
2023/11/22 03:13:20;;;;;;;3.72;2.88;;;;;;;5.29;100.00;93231.06;2091345;28;20032;-78
2023/11/22 03:14:21;;;;;;;4.43;2.60;;;;;;;5.18;100.00;93229.53;2100605;28;20020;-79
2023/11/22 03:15:22;;;;;;;2.60;2.17;;;;;;;4.85;100.00;93228.00;2101566;28;20023;-81
2023/11/22 03:16:24;;;;;;;2.95;2.00;;;;;;;4.82;100.00;93231.38;2101034;28;20048;-81
2023/11/22 03:17:28;;;;;;;4.20;2.33;;;;;;;4.84;100.00;93240.47;2103447;28;20046;-80
2023/11/22 03:18:29;;;;;;;5.78;2.30;;;;;;;4.94;100.00;93238.97;2099571;28;20016;-80
2023/11/22 03:19:29;;;;;;;2.03;1.83;;;;;;;4.89;100.00;93239.34;2092154;28;20024;-79
2023/11/22 03:20:32;;;;;;;3.00;2.05;;;;;;;5.01;100.00;93241.66;2093770;28;20469;-81
2023/11/22 03:21:35;;;;;;;2.92;2.10;;;;;;;4.99;100.00;93239.34;2100780;28;20468;-77
2023/11/22 03:22:37;;;;;;;3.03;2.17;;;;;;;5.03;100.00;93244.66;2098356;28;20783;-81
2023/11/22 03:23:40;;;;;;;2.83;2.40;;;;;;;4.75;100.00;93240.09;2102539;28;20567;-81
2023/11/22 03:24:42;;;;;;;2.47;2.28;;;;;;;4.64;100.00;93242.69;2103122;28;20431;-80
2023/11/22 03:25:43;;;;;;;2.92;2.38;;;;;;;4.68;100.00;93250.66;2107215;28;20024;-80
2023/11/22 03:26:45;;;;;;;3.17;2.60;;;;;;;4.67;100.00;93241.19;2102653;28;20020;-80
2023/11/22 03:27:47;;;;;;;5.15;2.30;;;;;;;4.57;100.00;93255.94;2116192;27;20019;-80
2023/11/22 03:28:47;;;;;;;4.90;2.67;;;;;;;4.58;100.00;93257.44;2114984;27;20023;-80
2023/11/22 03:29:49;;;;;;;2.92;2.60;;;;;;;4.35;100.00;93264.91;2112224;28;20102;-79
2023/11/22 03:30:50;;;;;;;2.83;2.60;;;;;;;4.27;100.00;93264.13;2096699;28;20032;-80
2023/11/22 03:31:51;;;;;;;4.43;2.65;;;;;;;4.38;100.00;93256.97;2088693;28;20025;-79
2023/11/22 03:32:54;;;;;;;3.10;2.80;;;;;;;4.37;100.00;93262.66;2097662;28;20059;-80
2023/11/22 03:33:57;;;;;;;3.30;2.70;;;;;;;4.52;100.00;93270.28;2108179;28;20027;-82
2023/11/22 03:34:58;;;;;;;2.92;2.70;;;;;;;4.39;100.00;93274.38;2110190;28;20027;-79
2023/11/22 03:35:58;;;;;;;4.65;2.80;;;;;;;4.41;100.00;93284.59;2120185;27;20494;-80
2023/11/22 03:36:59;;;;;;;11.38;2.92;;;;;;;4.31;100.00;93278.13;2114984;28;20100;-79
2023/11/22 03:38:00;;;;;;;18.42;3.22;;;;;;;4.09;100.00;93276.50;2119498;27;20026;-79
2023/11/22 03:39:02;;;;;;;11.13;3.58;;;;;;;4.33;100.00;93280.41;2113643;28;20011;-78
2023/11/22 03:40:04;;;;;;;3.88;2.95;;;;;;;4.34;100.00;93279.25;2097301;28;20488;-80
2023/11/22 03:41:05;;;;;;;38.03;3.50;;;;;;;4.20;100.00;93286.00;2090242;28;20031;-80
2023/11/22 03:42:06;;;;;;;3.80;3.38;;;;;;;4.14;100.00;93278.81;2104807;28;20016;-77
2023/11/22 03:43:10;;;;;;;6.85;3.75;;;;;;;4.20;100.00;93286.00;2103256;28;20021;-80
2023/11/22 03:44:11;;;;;;;6.50;3.25;;;;;;;4.23;100.00;93279.22;2098565;28;20048;-80
2023/11/22 03:45:13;;;;;;;3.53;3.22;;;;;;;4.20;100.00;93285.25;2106727;28;20016;-80
2023/11/22 03:46:14;;;;;;;5.68;3.38;;;;;;;4.02;100.00;93283.25;2108682;28;20495;-78
2023/11/22 03:47:15;;;;;;;3.40;3.00;;;;;;;3.98;100.00;93277.19;2093796;28;20028;-79
2023/11/22 03:48:16;;;;;;;5.32;3.08;;;;;;;4.04;100.00;93285.56;2112986;28;20520;-81
2023/11/22 03:49:17;;;;;;;3.67;2.90;;;;;;;4.09;100.00;93287.84;2113547;28;20028;-79
2023/11/22 03:50:18;;;;;;;3.30;3.00;;;;;;;4.16;100.00;93289.75;2119109;27;20047;-80
2023/11/22 03:51:19;;;;;;;3.28;2.70;;;;;;;4.01;100.00;93284.41;2113721;28;20055;-79
2023/11/22 03:52:20;;;;;;;3.67;3.08;;;;;;;3.76;100.00;93286.13;2103120;28;20361;-80
2023/11/22 03:53:22;;;;;;;4.10;2.95;;;;;;;3.81;100.00;93280.50;2106196;28;20496;-80
2023/11/22 03:54:23;;;;;;;2.78;2.50;;;;;;;3.67;100.00;93285.69;2106890;28;20023;-77
2023/11/22 03:55:24;;;;;;;3.75;2.95;;;;;;;3.65;100.00;93293.25;2096127;28;20017;-79
2023/11/22 03:56:29;;;;;;;3.15;2.85;;;;;;;3.69;100.00;93302.72;2098389;28;20020;-82
2023/11/22 03:57:30;;;;;;;3.30;3.00;;;;;;;3.61;100.00;93309.06;2089203;28;20063;-78
2023/11/22 03:58:31;;;;;;;4.70;2.60;;;;;;;3.54;100.00;93309.00;2099472;28;20472;-80
2023/11/22 03:59:34;;;;;;;3.08;2.78;;;;;;;3.40;100.00;93307.00;2098584;28;20439;-79
2023/11/22 04:00:35;;;;;;;2.80;2.53;;;;;;;3.28;100.00;93296.72;2112307;28;20027;-81
2023/11/22 04:01:36;;;;;;;4.80;3.08;;;;;;;3.35;100.00;93298.66;2110383;28;20480;-80
2023/11/22 04:02:38;;;;;;;5.80;3.28;;;;;;;3.53;100.00;93302.97;2110395;28;20085;-80
2023/11/22 04:03:40;;;;;;;5.60;2.97;;;;;;;3.72;100.00;93301.22;2109729;28;20035;-79
2023/11/22 04:04:41;;;;;;;3.28;2.97;;;;;;;3.70;100.00;93301.59;2116572;27;20072;-80
2023/11/22 04:05:43;;;;;;;5.65;3.05;;;;;;;3.57;100.00;93300.34;2123495;27;20504;-80
2023/11/22 04:06:44;;;;;;;3.75;3.38;;;;;;;3.50;100.00;93302.94;2112436;28;20020;-80
2023/11/22 04:07:45;;;;;;;6.20;3.65;;;;;;;3.65;100.00;93309.84;2113027;28;20023;-80
2023/11/22 04:08:47;;;;;;;4.90;3.90;;;;;;;3.54;100.00;93315.03;2120573;27;20038;-78
2023/11/22 04:09:48;;;;;;;4.40;3.72;;;;;;;3.57;100.00;93304.88;2110774;28;20031;-77
2023/11/22 04:10:49;;;;;;;4.43;3.70;;;;;;;3.60;100.00;93306.78;2105685;28;20465;-81
2023/11/22 04:11:50;;;;;;;4.07;3.67;;;;;;;3.78;100.00;93311.09;2093547;28;20036;-78
2023/11/22 04:12:51;;;;;;;16.88;3.70;;;;;;;3.53;100.00;93310.13;2098168;28;20055;-78
2023/11/22 04:13:52;;;;;;;6.93;3.58;;;;;;;3.56;100.00;93319.19;2118465;27;20026;-81
2023/11/22 04:14:53;;;;;;;17.55;3.85;;;;;;;3.60;100.00;93312.84;2101751;28;20028;-80
2023/11/22 04:15:54;;;;;;;15.80;4.05;;;;;;;3.52;100.00;93312.03;2093310;28;20020;-78
2023/11/22 04:16:55;;;;;;;16.45;3.92;;;;;;;3.57;100.00;93318.84;2112778;28;20019;-79
2023/11/22 04:17:56;;;;;;;23.17;4.22;;;;;;;3.51;100.00;93320.28;2110780;28;20024;-80
2023/11/22 04:18:57;;;;;;;6.20;3.65;;;;;;;3.49;100.00;93320.66;2108824;28;20019;-81
2023/11/22 04:19:58;;;;;;;7.97;3.53;;;;;;;3.46;100.00;93321.41;2114880;28;20047;-81
2023/11/22 04:21:01;;;;;;;3.75;3.30;;;;;;;3.34;100.00;93320.94;2103750;28;20531;-80
2023/11/22 04:22:02;;;;;;;4.15;3.35;;;;;;;3.41;100.00;93326.25;2098861;28;20103;-79
2023/11/22 04:23:03;;;;;;;4.53;3.40;;;;;;;3.42;100.00;93325.88;2104593;28;20031;-81
2023/11/22 04:24:04;;;;;;;3.78;3.45;;;;;;;3.60;100.00;93327.91;2105300;28;20681;-78
2023/11/22 04:25:06;;;;;;;6.07;3.70;;;;;;;3.50;100.00;93321.44;2108564;28;20028;-79
2023/11/22 04:26:07;;;;;;;4.32;3.70;;;;;;;3.46;100.00;93321.41;2119398;27;20425;-81
2023/11/22 04:27:08;;;;;;;4.15;3.22;;;;;;;3.66;100.00;93323.81;2114309;28;20102;-78
2023/11/22 04:28:09;;;;;;;4.20;3.50;;;;;;;3.79;100.00;93335.63;2114346;27;20403;-79
2023/11/22 04:29:10;;;;;;;5.43;3.67;;;;;;;3.61;100.00;93332.09;2111971;28;20068;-78
2023/11/22 04:30:17;;;;;;;4.13;3.33;;;;;;;3.45;100.00;93332.34;2112091;28;20110;-78
2023/11/22 04:31:18;;;;;;;3.65;2.88;;;;;;;3.38;100.00;93337.56;2102275;28;20021;-78
2023/11/22 04:32:22;;;;;;;3.30;2.70;;;;;;;3.37;100.00;93333.41;2110398;27;20488;-79
2023/11/22 04:33:23;;;;;;;3.55;2.50;;;;;;;3.23;100.00;93341.97;2115377;27;20127;-80
2023/11/22 04:34:24;;;;;;;2.97;2.47;;;;;;;2.96;100.00;93338.69;2114049;28;20070;-79
2023/11/22 04:35:27;;;;;;;2.47;2.28;;;;;;;3.00;100.00;93345.50;2113957;28;20023;-78
2023/11/22 04:36:29;;;;;;;2.40;2.20;;;;;;;3.16;100.00;93341.88;2109605;28;20020;-79
2023/11/22 04:37:32;;;;;;;2.83;2.08;;;;;;;3.03;100.00;93342.16;2111903;28;20027;-79
2023/11/22 04:38:34;;;;;;;2.80;2.45;;;;;;;2.84;100.00;93349.47;2101199;28;20020;-80
2023/11/22 04:39:35;;;;;;;2.33;1.90;;;;;;;2.91;100.00;93341.63;2099676;28;20025;-79
2023/11/22 04:40:37;;;;;;;2.38;2.10;;;;;;;2.95;100.00;93340.56;2100994;28;20054;-80
2023/11/22 04:41:38;;;;;;;2.40;2.10;;;;;;;3.11;100.00;93345.59;2109696;28;20432;-78
2023/11/22 04:42:39;;;;;;;2.85;2.53;;;;;;;3.02;100.00;93340.63;2103940;28;20035;-79
2023/11/22 04:43:40;;;;;;;2.58;2.38;;;;;;;2.96;100.00;93341.31;2100588;28;20216;-78
2023/11/22 04:44:41;;;;;;;2.63;2.35;;;;;;;2.96;100.00;93346.59;2102166;28;20051;-77
2023/11/22 04:45:42;;;;;;;2.95;2.70;;;;;;;3.00;100.00;93355.31;2095054;28;20553;-80
2023/11/22 04:46:43;;;;;;;2.90;2.60;;;;;;;3.04;100.00;93342.91;2100690;28;20423;-77
2023/11/22 04:47:44;;;;;;;5.40;2.50;;;;;;;3.01;100.00;93346.25;2111085;28;20016;-79
2023/11/22 04:48:47;;;;;;;3.22;2.60;;;;;;;2.95;100.00;93347.72;2109710;28;20023;-78
2023/11/22 04:49:48;;;;;;;3.78;2.63;;;;;;;2.84;100.00;93352.88;2105581;28;20448;-79